createdAt,value
2018-10-18T00:00:24.181Z,19.53
2018-10-18T00:02:52.607Z,17.27
2018-10-18T00:05:21.011Z,17.33
2018-10-18T00:07:49.366Z,16.13
2018-10-18T00:10:17.795Z,17.87
2018-10-18T00:12:46.238Z,16.57
2018-10-18T00:15:14.875Z,17.30
2018-10-18T00:17:45.835Z,18.30
2018-10-18T00:20:15.163Z,18.60
2018-10-18T00:22:44.183Z,18.10
2018-10-18T00:25:12.548Z,18.50
2018-10-18T00:27:40.894Z,16.80
2018-10-18T00:30:11.588Z,17.57
2018-10-18T00:32:40.148Z,16.80
2018-10-18T00:35:08.507Z,18.77
2018-10-18T00:37:37.318Z,16.73
2018-10-18T00:40:06.484Z,16.73
2018-10-18T00:42:36.793Z,19.37
2018-10-18T00:45:05.872Z,17.03
2018-10-18T00:47:34.279Z,18.10
2018-10-18T00:50:02.727Z,18.40
2018-10-18T00:52:31.012Z,16.40
2018-10-18T00:54:59.366Z,17.77
2018-10-18T00:57:27.698Z,18.73
2018-10-18T00:59:56.156Z,18.60
2018-10-18T01:02:24.522Z,17.87
2018-10-18T01:04:52.866Z,18.00
2018-10-18T01:07:21.194Z,20.90
2018-10-18T01:09:49.617Z,17.80
2018-10-18T01:12:18.045Z,18.40
2018-10-18T01:14:46.313Z,21.50
2018-10-18T01:17:14.654Z,18.70
2018-10-18T01:19:43.011Z,18.93
2018-10-18T01:22:11.631Z,19.20
2018-10-18T01:24:40.274Z,20.40
2018-10-18T01:27:08.631Z,18.63
2018-10-18T01:29:36.996Z,23.10
2018-10-18T01:32:07.783Z,23.83
2018-10-18T01:34:36.135Z,22.63
2018-10-18T01:37:04.475Z,25.97
2018-10-18T01:39:32.854Z,24.93
2018-10-18T01:42:01.277Z,23.00
2018-10-18T01:44:29.548Z,24.57
2018-10-18T01:46:57.962Z,24.17
2018-10-18T01:49:26.311Z,22.23
2018-10-18T01:51:54.711Z,24.03
2018-10-18T01:54:23.066Z,21.60
2018-10-18T01:56:51.410Z,21.70
2018-10-18T01:59:19.768Z,21.27
2018-10-18T02:01:48.170Z,21.30
2018-10-18T02:04:16.537Z,20.63
2018-10-18T02:06:44.937Z,20.93
2018-10-18T02:09:14.114Z,21.20
2018-10-18T02:11:42.793Z,21.87
2018-10-18T02:14:11.169Z,22.33
2018-10-18T02:16:39.512Z,21.87
2018-10-18T02:19:07.936Z,26.40
2018-10-18T02:21:36.349Z,23.57
2018-10-18T02:24:05.108Z,20.90
2018-10-18T02:26:33.442Z,25.03
2018-10-18T02:29:01.878Z,22.87
2018-10-18T02:31:30.242Z,27.77
2018-10-18T02:33:58.607Z,22.87
2018-10-18T02:36:26.978Z,24.60
2018-10-18T02:38:55.318Z,21.30
2018-10-18T02:41:23.699Z,23.63
2018-10-18T02:43:52.271Z,29.50
2018-10-18T02:46:20.634Z,22.97
2018-10-18T02:48:49.019Z,26.50
2018-10-18T02:51:17.376Z,23.13
2018-10-18T02:53:46.331Z,22.13
2018-10-18T02:56:14.770Z,21.87
2018-10-18T02:58:43.134Z,23.73
2018-10-18T03:01:11.461Z,23.90
2018-10-18T03:03:39.814Z,22.90
2018-10-18T03:06:08.229Z,26.67
2018-10-18T03:08:36.587Z,23.77
2018-10-18T03:11:05.663Z,23.80
2018-10-18T03:13:34.063Z,25.77
2018-10-18T03:16:02.488Z,24.73
2018-10-18T03:18:30.787Z,22.93
2018-10-18T03:20:59.176Z,21.60
2018-10-18T03:23:27.496Z,21.67
2018-10-18T03:25:55.881Z,23.20
2018-10-18T03:28:24.251Z,22.27
2018-10-18T03:30:52.594Z,25.00
2018-10-18T03:33:20.943Z,21.03
2018-10-18T03:35:49.339Z,20.73
2018-10-18T03:38:17.701Z,22.30
2018-10-18T03:40:46.029Z,23.37
2018-10-18T03:43:14.382Z,22.87
2018-10-18T03:45:42.778Z,20.53
2018-10-18T03:48:11.250Z,20.50
2018-10-18T03:50:39.562Z,21.67
2018-10-18T03:53:08.054Z,21.47
2018-10-18T03:55:36.429Z,20.40
2018-10-18T03:58:04.761Z,18.80
2018-10-18T04:00:33.171Z,19.87
2018-10-18T04:03:01.496Z,20.20
2018-10-18T04:05:29.836Z,19.80
2018-10-18T04:07:58.288Z,24.90
2018-10-18T04:10:26.690Z,19.97
2018-10-18T04:12:55.262Z,21.77
2018-10-18T04:15:23.476Z,22.70
2018-10-18T04:17:51.941Z,19.10
2018-10-18T04:20:20.242Z,19.87
2018-10-18T04:22:48.575Z,23.00
2018-10-18T04:25:16.923Z,24.37
2018-10-18T04:27:45.335Z,26.47
2018-10-18T04:30:13.824Z,24.40
2018-10-18T04:32:42.179Z,26.63
2018-10-18T04:35:10.578Z,25.80
2018-10-18T04:37:39.143Z,27.73
2018-10-18T04:40:07.554Z,26.03
2018-10-18T04:42:35.950Z,27.60
2018-10-18T04:45:06.749Z,24.23
2018-10-18T04:47:35.177Z,25.90
2018-10-18T04:50:03.739Z,24.53
2018-10-18T04:52:32.124Z,27.03
2018-10-18T04:55:00.538Z,27.87
2018-10-18T04:57:28.838Z,23.83
2018-10-18T04:59:57.241Z,25.37
2018-10-18T05:02:25.573Z,26.53
2018-10-18T05:05:05.222Z,25.70
2018-10-18T05:07:33.591Z,26.03
2018-10-18T05:10:01.945Z,24.50
2018-10-18T05:12:30.367Z,27.43
2018-10-18T05:14:58.773Z,26.67
2018-10-18T05:17:27.156Z,28.30
2018-10-18T05:19:55.528Z,24.13
2018-10-18T05:22:23.900Z,25.43
2018-10-18T05:24:52.280Z,25.40
2018-10-18T05:27:20.631Z,28.83
2018-10-18T05:29:48.989Z,22.53
2018-10-18T05:32:17.540Z,21.20
2018-10-18T05:34:46.115Z,22.40
2018-10-18T05:37:14.567Z,19.50
2018-10-18T05:39:42.945Z,19.97
2018-10-18T05:42:11.448Z,18.13
2018-10-18T05:44:39.788Z,19.23
2018-10-18T05:47:08.219Z,19.90
2018-10-18T05:49:36.521Z,22.90
2018-10-18T05:52:05.394Z,20.63
2018-10-18T05:54:33.772Z,19.63
2018-10-18T05:57:02.173Z,18.77
2018-10-18T05:59:30.575Z,20.03
2018-10-18T06:01:58.983Z,19.53
2018-10-18T06:04:27.343Z,19.33
2018-10-18T06:06:55.709Z,20.17
2018-10-18T06:09:29.056Z,21.77
2018-10-18T06:11:57.863Z,20.00
2018-10-18T06:14:27.072Z,22.07
2018-10-18T06:16:55.972Z,21.07
2018-10-18T06:19:24.476Z,21.70
2018-10-18T06:22:03.081Z,21.67
2018-10-18T06:24:31.518Z,20.97
2018-10-18T06:26:59.874Z,22.93
2018-10-18T06:29:28.275Z,21.40
2018-10-18T06:31:56.646Z,23.93
2018-10-18T06:34:25.038Z,26.67
2018-10-18T06:36:53.558Z,24.80
2018-10-18T06:39:22.336Z,27.23
2018-10-18T06:41:51.499Z,27.53
2018-10-18T06:44:20.119Z,26.73
2018-10-18T06:46:49.149Z,25.40
2018-10-18T06:49:18.018Z,25.63
2018-10-18T06:51:47.151Z,26.00
2018-10-18T06:54:15.947Z,34.60
2018-10-18T06:56:44.548Z,34.83
2018-10-18T06:59:13.207Z,30.10
2018-10-18T07:01:47.357Z,30.77
2018-10-18T07:04:15.995Z,37.30
2018-10-18T07:06:44.705Z,34.50
2018-10-18T07:09:14.034Z,33.27
2018-10-18T07:11:42.559Z,38.73
2018-10-18T07:14:10.942Z,36.50
2018-10-18T07:16:39.366Z,47.73
2018-10-18T07:19:07.722Z,40.13
2018-10-18T07:21:36.152Z,41.20
2018-10-18T07:24:04.820Z,47.90
2018-10-18T07:26:33.159Z,38.30
2018-10-18T07:29:01.582Z,43.17
2018-10-18T07:31:29.951Z,46.33
2018-10-18T07:33:58.392Z,41.27
2018-10-18T07:36:27.999Z,41.00
2018-10-18T07:38:57.777Z,44.83
2018-10-18T07:41:27.047Z,38.53
2018-10-18T07:43:56.795Z,36.13
2018-10-18T07:46:26.821Z,34.47
2018-10-18T07:48:56.265Z,34.00
2018-10-18T07:51:24.809Z,33.87
2018-10-18T07:53:53.647Z,35.70
2018-10-18T07:56:22.459Z,37.27
2018-10-18T07:58:51.237Z,37.37
2018-10-18T08:01:20.057Z,43.73
2018-10-18T08:03:48.925Z,45.43
2018-10-18T08:06:17.736Z,49.07
2018-10-18T08:08:47.049Z,41.10
2018-10-18T08:11:15.804Z,45.37
2018-10-18T08:13:45.114Z,47.63
2018-10-18T08:16:14.158Z,50.40
2018-10-18T08:18:43.246Z,51.20
2018-10-18T08:21:12.622Z,46.90
2018-10-18T08:23:41.713Z,50.57
2018-10-18T08:26:11.598Z,53.90
2018-10-18T08:28:41.136Z,55.87
2018-10-18T08:31:11.253Z,60.47
2018-10-18T08:33:40.648Z,54.13
2018-10-18T08:36:09.186Z,52.30
2018-10-18T08:38:37.933Z,56.20
2018-10-18T08:41:07.091Z,57.70
2018-10-18T08:43:36.594Z,56.10
2018-10-18T08:46:05.263Z,56.03
2018-10-18T08:48:33.987Z,52.77
2018-10-18T08:51:03.696Z,50.50
2018-10-18T08:53:32.623Z,53.87
2018-10-18T08:56:01.115Z,49.77
2018-10-18T08:58:29.569Z,55.53
2018-10-18T09:00:57.947Z,51.10
2018-10-18T09:03:26.292Z,53.63
2018-10-18T09:05:54.682Z,48.70
2018-10-18T09:08:23.011Z,49.90
2018-10-18T09:10:51.370Z,50.67
2018-10-18T09:13:19.841Z,49.40
2018-10-18T09:15:48.160Z,52.17
2018-10-18T09:18:16.503Z,43.33
2018-10-18T09:20:44.875Z,45.93
2018-10-18T09:23:13.209Z,46.30
2018-10-18T09:25:41.577Z,48.27
2018-10-18T09:28:10.194Z,49.90
2018-10-18T09:30:38.623Z,45.70
2018-10-18T09:33:07.014Z,52.27
2018-10-18T09:35:35.361Z,47.60
2018-10-18T09:38:03.688Z,44.80
2018-10-18T09:40:32.227Z,39.50
2018-10-18T09:43:00.624Z,41.10
2018-10-18T09:45:29.040Z,44.33
2018-10-18T09:47:57.419Z,43.90
2018-10-18T09:50:25.806Z,38.50
2018-10-18T09:52:54.202Z,37.80
2018-10-18T09:55:22.573Z,39.87
2018-10-18T09:57:50.944Z,39.30
2018-10-18T10:00:24.674Z,41.20
2018-10-18T10:02:58.202Z,37.13
2018-10-18T10:05:26.590Z,37.90
2018-10-18T10:07:54.942Z,37.20
2018-10-18T10:10:23.378Z,34.60
2018-10-18T10:12:51.742Z,36.93
2018-10-18T10:15:20.103Z,36.57
2018-10-18T10:17:48.525Z,35.47
2018-10-18T10:20:16.827Z,35.20
2018-10-18T10:22:49.834Z,33.23
2018-10-18T10:25:18.404Z,34.03
2018-10-18T10:27:46.686Z,32.17
2018-10-18T10:30:15.133Z,39.10
2018-10-18T10:32:43.497Z,33.27
2018-10-18T10:35:11.867Z,33.03
2018-10-18T10:37:40.218Z,34.80
2018-10-18T10:40:10.220Z,32.40
2018-10-18T10:42:39.214Z,34.40
2018-10-18T10:45:08.293Z,37.63
2018-10-18T10:47:36.637Z,32.27
2018-10-18T10:50:05.179Z,36.03
2018-10-18T10:52:33.636Z,33.17
2018-10-18T10:55:02.199Z,31.60
2018-10-18T10:57:30.871Z,32.30
2018-10-18T10:59:59.334Z,34.77
2018-10-18T11:02:27.659Z,38.40
2018-10-18T11:04:56.063Z,34.03
2018-10-18T11:07:25.145Z,34.70
2018-10-18T11:09:53.537Z,36.57
2018-10-18T11:12:22.010Z,35.03
2018-10-18T11:14:50.355Z,37.87
2018-10-18T11:17:18.785Z,34.90
2018-10-18T11:19:47.490Z,33.27
2018-10-18T11:22:15.920Z,31.87
2018-10-18T11:24:46.210Z,33.20
2018-10-18T11:27:14.543Z,34.50
2018-10-18T11:29:42.983Z,33.23
2018-10-18T11:32:11.393Z,35.70
2018-10-18T11:34:39.702Z,32.00
2018-10-18T11:37:08.058Z,36.73
2018-10-18T11:39:36.758Z,33.80
2018-10-18T11:42:05.253Z,31.40
2018-10-18T11:44:41.045Z,33.60
2018-10-18T11:47:11.073Z,31.60
2018-10-18T11:49:40.302Z,31.27
2018-10-18T11:52:08.736Z,32.17
2018-10-18T11:54:37.126Z,32.53
2018-10-18T11:57:05.573Z,34.33
2018-10-18T11:59:33.924Z,38.80
2018-10-18T12:02:02.477Z,34.57
2018-10-18T12:04:30.744Z,32.40
2018-10-18T12:06:59.101Z,32.13
2018-10-18T12:09:27.518Z,31.27
2018-10-18T12:11:55.886Z,30.63
2018-10-18T12:14:24.263Z,33.83
2018-10-18T12:16:52.660Z,32.13
2018-10-18T12:19:21.002Z,30.83
2018-10-18T12:21:49.448Z,30.07
2018-10-18T12:24:17.778Z,29.80
2018-10-18T12:26:46.186Z,29.23
2018-10-18T12:29:14.553Z,29.37
2018-10-18T12:31:43.201Z,29.33
2018-10-18T12:34:11.541Z,32.60
2018-10-18T12:36:39.926Z,29.87
2018-10-18T12:39:09.073Z,31.33
2018-10-18T12:41:37.517Z,30.63
2018-10-18T12:44:05.858Z,30.77
2018-10-18T12:46:34.207Z,28.33
2018-10-18T12:49:02.588Z,29.10
2018-10-18T12:51:30.967Z,31.07
2018-10-18T12:53:59.412Z,31.47
2018-10-18T12:56:27.728Z,29.07
2018-10-18T12:58:56.093Z,28.40
2018-10-18T13:01:24.580Z,31.30
2018-10-18T13:03:52.943Z,29.60
2018-10-18T13:06:21.634Z,31.50
2018-10-18T13:08:50.024Z,34.03
2018-10-18T13:11:18.354Z,32.57
2018-10-18T13:13:46.820Z,34.33
2018-10-18T13:16:15.250Z,31.30
2018-10-18T13:18:43.696Z,35.93
2018-10-18T13:21:12.231Z,31.90
2018-10-18T13:23:40.603Z,31.63
2018-10-18T13:26:08.988Z,31.63
2018-10-18T13:28:37.347Z,33.13
2018-10-18T13:31:07.427Z,33.97
2018-10-18T13:33:35.807Z,32.30
2018-10-18T13:36:04.317Z,34.87
2018-10-18T13:38:32.787Z,31.40
2018-10-18T13:41:01.176Z,30.17
2018-10-18T13:43:29.598Z,30.50
2018-10-18T13:45:57.990Z,29.47
2018-10-18T13:48:26.397Z,27.13
2018-10-18T13:50:54.761Z,28.53
2018-10-18T13:53:23.111Z,27.80
2018-10-18T13:55:51.455Z,30.43
2018-10-18T13:58:19.826Z,29.70
2018-10-18T14:00:48.226Z,26.43
2018-10-18T14:03:16.599Z,25.40
2018-10-18T14:05:45.868Z,25.63
2018-10-18T14:08:14.273Z,26.30
2018-10-18T14:10:43.151Z,25.80
2018-10-18T14:13:11.543Z,26.67
2018-10-18T14:15:39.899Z,25.53
2018-10-18T14:18:08.287Z,25.77
2018-10-18T14:20:36.676Z,23.07
2018-10-18T14:23:05.227Z,23.03
2018-10-18T14:25:33.526Z,23.03
2018-10-18T14:28:02.504Z,22.63
2018-10-18T14:30:31.044Z,26.63
2018-10-18T14:32:59.233Z,27.43
2018-10-18T14:35:27.646Z,26.10
2018-10-18T14:37:56.095Z,25.87
2018-10-18T14:40:24.506Z,26.67
2018-10-18T14:42:52.930Z,26.23
2018-10-18T14:45:21.321Z,24.70
2018-10-18T14:47:49.803Z,25.03
2018-10-18T14:50:18.301Z,22.60
2018-10-18T14:52:46.559Z,28.03
2018-10-18T14:55:15.049Z,30.83
2018-10-18T14:57:43.524Z,24.57
2018-10-18T15:00:12.610Z,23.43
2018-10-18T15:02:41.020Z,25.30
2018-10-18T15:05:12.074Z,28.33
2018-10-18T15:07:40.926Z,25.30
2018-10-18T15:10:10.910Z,25.93
2018-10-18T15:12:39.435Z,25.30
2018-10-18T15:15:08.791Z,30.63
2018-10-18T15:17:37.311Z,24.10
2018-10-18T15:20:06.671Z,27.33
2018-10-18T15:22:34.991Z,24.77
2018-10-18T15:25:03.518Z,22.20
2018-10-18T15:27:32.074Z,24.97
2018-10-18T15:30:00.281Z,24.80
2018-10-18T15:32:28.724Z,28.23
2018-10-18T15:34:57.073Z,27.20
2018-10-18T15:37:25.399Z,25.33
2018-10-18T15:39:54.158Z,26.73
2018-10-18T15:42:23.199Z,26.20
2018-10-18T15:44:52.148Z,23.97
2018-10-18T15:47:21.480Z,23.97
2018-10-18T15:49:50.287Z,28.27
2018-10-18T15:52:19.098Z,22.90
2018-10-18T15:54:47.960Z,29.10
2018-10-18T15:59:32.784Z,28.67
2018-10-18T16:02:01.234Z,23.27
2018-10-18T16:04:29.598Z,27.37
2018-10-18T16:06:57.998Z,23.43
2018-10-18T16:09:26.475Z,24.60
2018-10-18T16:11:54.855Z,24.13
2018-10-18T16:14:23.258Z,22.87
2018-10-18T16:16:51.749Z,24.70
2018-10-18T16:19:20.114Z,24.80
2018-10-18T16:21:48.658Z,23.13
2018-10-18T16:24:17.079Z,23.70
2018-10-18T16:26:45.494Z,26.33
2018-10-18T16:29:13.890Z,27.23
2018-10-18T16:31:42.211Z,26.93
2018-10-18T16:34:10.612Z,25.00
2018-10-18T16:36:39.113Z,26.80
2018-10-18T16:39:09.471Z,25.83
2018-10-18T16:41:38.055Z,25.53
2018-10-18T16:44:06.475Z,23.33
2018-10-18T16:46:34.819Z,26.30
2018-10-18T16:49:03.638Z,25.37
2018-10-18T16:51:32.043Z,24.77
2018-10-18T16:54:00.482Z,30.03
2018-10-18T16:56:28.845Z,25.50
2018-10-18T16:58:57.213Z,26.90
2018-10-18T17:01:25.648Z,27.57
2018-10-18T17:03:54.518Z,25.93
2018-10-18T17:06:22.906Z,26.10
2018-10-18T17:08:51.271Z,28.13
2018-10-18T17:11:19.801Z,31.03
2018-10-18T17:13:48.028Z,28.83
2018-10-18T17:16:16.498Z,26.60
2018-10-18T17:18:44.830Z,27.00
2018-10-18T17:21:13.592Z,26.33
2018-10-18T17:23:41.980Z,27.03
2018-10-18T17:26:10.375Z,27.57
2018-10-18T17:28:38.789Z,29.37
2018-10-18T17:31:07.223Z,27.93
2018-10-18T17:33:35.661Z,29.03
2018-10-18T17:36:04.074Z,42.33
2018-10-18T17:38:32.474Z,27.77
2018-10-18T17:41:00.878Z,28.37
2018-10-18T17:43:29.340Z,26.13
2018-10-18T17:45:57.887Z,31.60
2018-10-18T17:48:26.286Z,29.80
2018-10-18T17:50:54.894Z,29.90
2018-10-18T17:53:23.355Z,28.50
2018-10-18T17:55:51.812Z,27.07
2018-10-18T17:58:21.004Z,28.60
2018-10-18T18:00:49.262Z,29.17
2018-10-18T18:03:18.382Z,28.13
2018-10-18T18:05:47.028Z,29.30
2018-10-18T18:08:15.458Z,26.80
2018-10-18T18:10:43.810Z,28.43
2018-10-18T18:13:12.577Z,31.37
2018-10-18T18:15:41.137Z,27.67
2018-10-18T18:18:09.570Z,27.73
2018-10-18T18:20:38.593Z,28.70
2018-10-18T18:23:07.082Z,27.40
2018-10-18T18:25:36.203Z,29.63
2018-10-18T18:28:04.616Z,27.93
2018-10-18T18:30:32.990Z,26.77
2018-10-18T18:33:01.403Z,31.80
2018-10-18T18:35:29.815Z,26.17
2018-10-18T18:37:58.238Z,28.70
2018-10-18T18:40:26.603Z,29.83
2018-10-18T18:42:55.828Z,32.10
2018-10-18T18:45:25.503Z,27.00
2018-10-18T18:47:53.840Z,27.40
2018-10-18T18:50:22.237Z,32.20
2018-10-18T18:52:50.657Z,25.90
2018-10-18T18:55:19.034Z,27.80
2018-10-18T18:57:47.409Z,26.83
2018-10-18T19:00:15.883Z,32.23
2018-10-18T19:02:44.244Z,27.30
2018-10-18T19:05:12.637Z,27.73
2018-10-18T19:07:41.033Z,29.00
2018-10-18T19:10:09.568Z,27.03
2018-10-18T19:12:38.303Z,26.53
2018-10-18T19:15:08.795Z,25.40
2018-10-18T19:17:38.030Z,27.40
2018-10-18T19:20:06.558Z,29.07
2018-10-18T19:22:35.610Z,29.20
2018-10-18T19:25:04.080Z,25.43
2018-10-18T19:27:32.601Z,26.37
2018-10-18T19:30:01.208Z,25.87
2018-10-18T19:32:29.609Z,25.60
2018-10-18T19:34:58.120Z,26.40
2018-10-18T19:37:26.599Z,27.57
2018-10-18T19:39:55.062Z,27.70
2018-10-18T19:42:24.090Z,25.10
2018-10-18T19:44:52.573Z,28.33
2018-10-18T19:47:21.605Z,24.93
2018-10-18T19:49:50.127Z,25.10
2018-10-18T19:52:18.661Z,25.60
2018-10-18T19:54:47.727Z,26.70
2018-10-18T19:57:16.466Z,22.73
2018-10-18T19:59:45.038Z,31.57
2018-10-18T20:02:14.813Z,25.03
2018-10-18T20:04:43.834Z,23.23
2018-10-18T20:07:12.290Z,27.53
2018-10-18T20:09:40.761Z,25.50
2018-10-18T20:12:09.153Z,23.70
2018-10-18T20:14:37.564Z,24.33
2018-10-18T20:17:07.366Z,23.33
2018-10-18T20:19:35.870Z,23.47
2018-10-18T20:22:06.511Z,22.13
2018-10-18T20:24:34.966Z,22.00
2018-10-18T20:27:03.466Z,21.90
2018-10-18T20:29:31.915Z,24.63
2018-10-18T20:32:00.414Z,23.07
2018-10-18T20:34:28.816Z,23.73
2018-10-18T20:36:57.185Z,24.63
2018-10-18T20:39:25.528Z,22.70
2018-10-18T20:41:54.004Z,23.00
2018-10-18T20:44:22.457Z,24.00
2018-10-18T20:46:51.097Z,22.53
2018-10-18T20:49:19.266Z,22.73
2018-10-18T20:51:47.762Z,20.60
2018-10-18T20:54:16.126Z,19.43
2018-10-18T20:56:44.552Z,18.57
2018-10-18T20:59:12.924Z,18.30
2018-10-18T21:01:41.321Z,18.83
2018-10-18T21:04:09.732Z,16.20
2018-10-18T21:06:38.306Z,15.97
2018-10-18T21:09:08.546Z,17.67
2018-10-18T21:11:36.947Z,16.20
2018-10-18T21:14:05.519Z,17.73
2018-10-18T21:16:34.023Z,20.47
2018-10-18T21:19:02.609Z,16.77
2018-10-18T21:21:31.049Z,14.00
2018-10-18T21:23:59.461Z,15.00
2018-10-18T21:26:27.792Z,15.10
2018-10-18T21:28:56.339Z,16.57
2018-10-18T21:31:24.715Z,16.27
2018-10-18T21:33:53.274Z,13.90
2018-10-18T21:36:21.633Z,12.97
2018-10-18T21:38:50.237Z,13.20
2018-10-18T21:41:18.698Z,12.13
2018-10-18T21:43:47.459Z,13.77
2018-10-18T21:46:15.890Z,11.50
2018-10-18T21:48:45.266Z,12.37
2018-10-18T21:51:13.805Z,13.07
2018-10-18T21:53:42.087Z,10.97
2018-10-18T21:56:10.458Z,11.80
2018-10-18T21:58:39.271Z,11.90
2018-10-18T22:01:19.527Z,10.93
2018-10-18T22:03:48.469Z,10.90
2018-10-18T22:06:17.030Z,12.67
2018-10-18T22:08:50.598Z,10.33
2018-10-18T22:11:19.239Z,9.00
2018-10-18T22:13:47.821Z,9.00
2018-10-18T22:16:16.313Z,8.67
2018-10-18T22:18:45.027Z,10.80
2018-10-18T22:21:13.543Z,9.30
2018-10-18T22:23:44.508Z,8.33
2018-10-18T22:26:16.281Z,7.90
2018-10-18T22:28:44.956Z,7.30
2018-10-18T22:31:14.146Z,7.23
2018-10-18T22:33:43.119Z,6.80
2018-10-18T22:36:15.805Z,7.77
2018-10-18T22:38:45.441Z,6.80
2018-10-18T22:41:18.325Z,7.00
2018-10-18T22:43:49.572Z,6.30
2018-10-18T22:46:19.179Z,7.20
2018-10-18T22:48:47.522Z,6.60
2018-10-18T22:51:15.945Z,13.73
2018-10-18T22:53:44.302Z,6.97
2018-10-18T22:56:12.691Z,6.17
2018-10-18T22:58:41.054Z,6.67
2018-10-18T23:01:09.448Z,6.60
2018-10-18T23:03:37.802Z,5.53
2018-10-18T23:06:06.168Z,6.47
2018-10-18T23:08:34.545Z,5.83
2018-10-18T23:11:02.969Z,6.37
2018-10-18T23:13:38.503Z,5.60
2018-10-18T23:16:18.040Z,5.87
2018-10-18T23:22:16.828Z,7.20
2018-10-18T23:24:45.182Z,8.07
2018-10-18T23:27:13.616Z,6.20
2018-10-18T23:29:41.914Z,5.70
2018-10-18T23:32:10.409Z,7.40
2018-10-18T23:34:38.822Z,6.93
2018-10-18T23:37:07.143Z,5.87
2018-10-18T23:39:35.527Z,10.40
2018-10-18T23:42:03.942Z,5.77
2018-10-18T23:44:32.341Z,10.30
2018-10-18T23:47:00.701Z,7.93
2018-10-18T23:49:29.390Z,7.50
2018-10-18T23:51:57.762Z,7.87
2018-10-18T23:54:26.127Z,12.00
2018-10-18T23:56:54.500Z,10.27
2018-10-18T23:59:23.686Z,7.57
